Darstellungsparameter: Aktuell verwendete Einstellungen:
Skalierung der Graphiken ... ?
xyx+y,   Skalierungsfaktor:      Skalierung: Modus: x, Faktor: 1
Darstellungszeitraum ... ?
Vom - - bis: - -   Zeitraum: 29.08.2019 - 29.08.2019
Min/Max/Avg-Anzeige ... ?
Zeige MMA aktuell
Zeige MMA Monat
Zeige MMA alles
Zeige --A aktuell
Zeige --A Monat
Zeige --A alles
Keine MMA-Anzeige
MMA:
Keine MMA-Graphiken
MMA-Basis: 29.08.2019 - 29.08.2019
Quicknavigation für Darstellung... ?
Tage:      1T, 2T, 3T, 5T -1T -2T -3T -5T +1T +2T +3T +5T
Wochen: 1W, 2W, 3W -1W -2W -3W +1W +2W +3W
Monate: 1M, 3M, 6M -1M -3M -6M +1M +3M +6M
Jahre:    1J, 3J, 5J, 10J -1J -3J -5J -10J +1J +3J +5J +10J
Nutze für die Darstellung ... ?
Originaldaten oder Mittelwerte auf ...
Stundenbasis Tagesbasis Wochenbasis
Monatsbasis Jahresbasis      Datenbasis: Original-Daten
Darstellen als:
Statistik (Auto) Statistik J:M      Darstellung:
Zur Graphik,    zurück zur Übersicht aller Sensoren.
 
Tabellarische Datenbersicht: ?
 
Sensor: Nr:Datum:Temp:Feuchte:Taupunkt:
Aussen-T/F 1 29-08-2019 00:00:00 21 C 76 % 16.61 C
2 29-08-2019 00:05:00 20.9 C 76 % 16.51 C
3 29-08-2019 00:10:00 20.9 C 76 % 16.51 C
4 29-08-2019 00:15:00 20.9 C 77 % 16.72 C
5 29-08-2019 00:20:00 20.8 C 77 % 16.62 C
6 29-08-2019 00:25:00 20.8 C 77 % 16.62 C
7 29-08-2019 00:30:00 20.7 C 76 % 16.32 C
8 29-08-2019 00:35:00 20.7 C 77 % 16.52 C
9 29-08-2019 00:40:00 20.7 C 77 % 16.52 C
10 29-08-2019 00:45:00 20.7 C 77 % 16.52 C
11 29-08-2019 00:50:00 20.6 C 78 % 16.63 C
12 29-08-2019 00:55:00 20.6 C 78 % 16.63 C
13 29-08-2019 01:00:00 20.5 C 78 % 16.53 C
14 29-08-2019 01:05:00 20.5 C 78 % 16.53 C
15 29-08-2019 01:10:00 20.4 C 78 % 16.44 C
16 29-08-2019 01:15:00 20.3 C 78 % 16.34 C
17 29-08-2019 01:20:00 20.3 C 79 % 16.54 C
18 29-08-2019 01:25:00 20.2 C 79 % 16.44 C
19 29-08-2019 01:30:00 20.1 C 79 % 16.34 C
20 29-08-2019 01:35:00 19.9 C 79 % 16.15 C
21 29-08-2019 01:40:00 19.9 C 80 % 16.35 C
22 29-08-2019 01:45:00 19.8 C 80 % 16.25 C
23 29-08-2019 01:50:00 19.7 C 80 % 16.15 C
24 29-08-2019 01:55:00 19.7 C 81 % 16.35 C
25 29-08-2019 02:00:00 19.6 C 81 % 16.25 C
Sensor: Nr:Datum:Temp:Feuchte:Taupunkt:
Aussen-T/F 26 29-08-2019 02:05:00 19.6 C 81 % 16.25 C
27 29-08-2019 02:10:00 19.4 C 81 % 16.06 C
28 29-08-2019 02:15:00 19.3 C 81 % 15.96 C
29 29-08-2019 02:20:00 19.2 C 82 % 16.05 C
30 29-08-2019 02:25:00 19.2 C 82 % 16.05 C
31 29-08-2019 02:30:00 19.1 C 83 % 16.15 C
32 29-08-2019 02:35:00 19.1 C 83 % 16.15 C
33 29-08-2019 02:40:00 19.1 C 83 % 16.15 C
34 29-08-2019 02:45:00 19.1 C 83 % 16.15 C
35 29-08-2019 02:50:00 18.9 C 83 % 15.95 C
36 29-08-2019 02:55:00 18.8 C 83 % 15.85 C
37 29-08-2019 03:00:00 18.7 C 83 % 15.75 C
38 29-08-2019 03:05:00 18.6 C 84 % 15.84 C
39 29-08-2019 03:10:00 18.5 C 84 % 15.75 C
40 29-08-2019 03:15:00 18.4 C 84 % 15.65 C
41 29-08-2019 03:20:00 18.3 C 84 % 15.55 C
42 29-08-2019 03:25:00 18.2 C 85 % 15.64 C
43 29-08-2019 03:30:00 18.2 C 85 % 15.64 C
44 29-08-2019 03:35:00 18.1 C 85 % 15.54 C
45 29-08-2019 03:40:00 18.1 C 85 % 15.54 C
46 29-08-2019 03:45:00 17.9 C 86 % 15.53 C
47 29-08-2019 03:50:00 17.9 C 86 % 15.53 C
48 29-08-2019 03:55:00 17.8 C 87 % 15.61 C
49 29-08-2019 04:00:00 17.8 C 87 % 15.61 C
50 29-08-2019 04:05:00 17.7 C 87 % 15.51 C
Sensor: Nr:Datum:Temp:Feuchte:Taupunkt:
Aussen-T/F 51 29-08-2019 04:10:00 17.7 C 87 % 15.51 C
52 29-08-2019 04:15:00 17.7 C 87 % 15.51 C
53 29-08-2019 04:20:00 17.6 C 88 % 15.59 C
54 29-08-2019 04:25:00 17.5 C 88 % 15.49 C
55 29-08-2019 04:30:00 17.4 C 88 % 15.39 C
56 29-08-2019 04:35:00 17.4 C 88 % 15.39 C
57 29-08-2019 04:40:00 17.4 C 89 % 15.57 C
58 29-08-2019 04:45:00 17.4 C 89 % 15.57 C
59 29-08-2019 04:50:00 17.4 C 89 % 15.57 C
60 29-08-2019 04:55:00 17.4 C 89 % 15.57 C
61 29-08-2019 05:00:00 17.4 C 89 % 15.57 C
62 29-08-2019 05:05:00 17.5 C 90 % 15.84 C
63 29-08-2019 05:10:00 17.6 C 90 % 15.94 C
64 29-08-2019 05:15:00 17.7 C 90 % 16.04 C
65 29-08-2019 05:20:00 17.7 C 90 % 16.04 C
66 29-08-2019 05:25:00 17.8 C 90 % 16.14 C
67 29-08-2019 05:30:00 17.8 C 90 % 16.14 C
68 29-08-2019 05:35:00 17.8 C 90 % 16.14 C
69 29-08-2019 05:40:00 17.9 C 90 % 16.24 C
70 29-08-2019 05:45:00 18 C 90 % 16.34 C
71 29-08-2019 05:50:00 18.1 C 90 % 16.43 C
72 29-08-2019 05:55:00 18.1 C 90 % 16.43 C
73 29-08-2019 06:00:00 18.2 C 90 % 16.53 C
74 29-08-2019 06:05:00 18.3 C 90 % 16.63 C
75 29-08-2019 06:10:00 18.3 C 90 % 16.63 C
Sensor: Nr:Datum:Temp:Feuchte:Taupunkt:
Aussen-T/F 76 29-08-2019 06:15:00 18.3 C 90 % 16.63 C
77 29-08-2019 06:20:00 18.3 C 90 % 16.63 C
78 29-08-2019 06:25:00 18.3 C 90 % 16.63 C
79 29-08-2019 06:30:00 18.3 C 89 % 16.46 C
80 29-08-2019 06:35:00 18.3 C 89 % 16.46 C
81 29-08-2019 06:40:00 18.3 C 90 % 16.63 C
82 29-08-2019 06:45:00 18.4 C 90 % 16.73 C
83 29-08-2019 06:50:00 18.5 C 90 % 16.83 C
84 29-08-2019 06:55:00 18.6 C 90 % 16.93 C
85 29-08-2019 07:00:00 18.6 C 90 % 16.93 C
86 29-08-2019 07:05:00 18.8 C 90 % 17.12 C
87 29-08-2019 07:10:00 18.9 C 90 % 17.22 C
88 29-08-2019 07:15:00 19 C 89 % 17.15 C
89 29-08-2019 07:20:00 19.1 C 89 % 17.24 C
90 29-08-2019 07:25:00 19.1 C 89 % 17.24 C
91 29-08-2019 07:30:00 19.1 C 89 % 17.24 C
92 29-08-2019 07:35:00 19.1 C 89 % 17.24 C
93 29-08-2019 07:40:00 19.1 C 89 % 17.24 C
94 29-08-2019 07:45:00 19.2 C 89 % 17.34 C
95 29-08-2019 07:50:00 19.2 C 89 % 17.34 C
96 29-08-2019 07:55:00 19.3 C 89 % 17.44 C
97 29-08-2019 08:00:00 19.4 C 88 % 17.36 C
98 29-08-2019 08:05:00 19.6 C 88 % 17.56 C
99 29-08-2019 08:10:00 19.6 C 88 % 17.56 C
100 29-08-2019 08:15:00 19.7 C 88 % 17.66 C
Sensor: Nr:Datum:Temp:Feuchte:Taupunkt:
Aussen-T/F 101 29-08-2019 08:20:00 19.8 C 88 % 17.75 C
102 29-08-2019 08:25:00 19.8 C 87 % 17.57 C
103 29-08-2019 08:30:00 19.9 C 87 % 17.67 C
104 29-08-2019 08:35:00 20.1 C 87 % 17.87 C
105 29-08-2019 08:40:00 20.1 C 86 % 17.68 C
106 29-08-2019 08:45:00 20.2 C 86 % 17.78 C
107 29-08-2019 08:50:00 20.2 C 86 % 17.78 C
108 29-08-2019 08:55:00 20.3 C 86 % 17.88 C
109 29-08-2019 09:00:00 20.3 C 86 % 17.88 C
110 29-08-2019 09:05:00 20.4 C 86 % 17.98 C
111 29-08-2019 09:10:00 20.4 C 85 % 17.79 C
112 29-08-2019 09:15:00 20.5 C 85 % 17.89 C
113 29-08-2019 09:20:00 20.6 C 85 % 17.99 C
114 29-08-2019 09:25:00 20.6 C 85 % 17.99 C
115 29-08-2019 09:30:00 20.7 C 85 % 18.09 C
116 29-08-2019 09:35:00 20.8 C 84 % 18 C
117 29-08-2019 09:40:00 20.8 C 85 % 18.18 C
118 29-08-2019 09:45:00 21 C 84 % 18.19 C
119 29-08-2019 09:50:00 21.1 C 84 % 18.29 C
120 29-08-2019 09:55:00 21.2 C 84 % 18.39 C
121 29-08-2019 10:00:00 21.2 C 84 % 18.39 C
122 29-08-2019 10:05:00 21.2 C 84 % 18.39 C
123 29-08-2019 10:10:00 21.3 C 86 % 18.86 C
124 29-08-2019 10:15:00 21.2 C 87 % 18.95 C
125 29-08-2019 10:20:00 21.2 C 88 % 19.13 C
Sensor: Nr:Datum:Temp:Feuchte:Taupunkt:
Aussen-T/F 126 29-08-2019 10:25:00 21.2 C 88 % 19.13 C
127 29-08-2019 10:30:00 21.1 C 86 % 18.67 C
128 29-08-2019 10:35:00 21 C 86 % 18.57 C
129 29-08-2019 10:40:00 21 C 87 % 18.75 C
130 29-08-2019 10:45:00 21.1 C 88 % 19.03 C
131 29-08-2019 10:50:00 21.3 C 88 % 19.23 C
132 29-08-2019 10:55:00 21.3 C 86 % 18.86 C
133 29-08-2019 11:00:00 21.4 C 85 % 18.77 C
134 29-08-2019 11:05:00 21.6 C 84 % 18.78 C
135 29-08-2019 11:10:00 21.7 C 84 % 18.88 C
136 29-08-2019 11:15:00 21.8 C 84 % 18.97 C
137 29-08-2019 11:20:00 21.9 C 84 % 19.07 C
138 29-08-2019 11:25:00 22.1 C 83 % 19.08 C
139 29-08-2019 11:30:00 22.2 C 83 % 19.17 C
140 29-08-2019 11:35:00 22.4 C 82 % 19.17 C
141 29-08-2019 11:40:00 22.5 C 81 % 19.08 C
142 29-08-2019 11:45:00 22.7 C 80 % 19.07 C
143 29-08-2019 11:50:00 22.6 C 80 % 18.97 C
144 29-08-2019 11:55:00 22.7 C 80 % 19.07 C
145 29-08-2019 12:00:00 22.7 C 80 % 19.07 C
146 29-08-2019 12:05:00 22.7 C 80 % 19.07 C
147 29-08-2019 12:10:00 22.8 C 80 % 19.17 C
148 29-08-2019 12:15:00 22.9 C 79 % 19.06 C
149 29-08-2019 12:20:00 23 C 78 % 18.96 C
150 29-08-2019 12:25:00 23.1 C 78 % 19.05 C
Sensor: Nr:Datum:Temp:Feuchte:Taupunkt:
Aussen-T/F 151 29-08-2019 12:30:00 23.2 C 78 % 19.15 C
152 29-08-2019 12:35:00 23.3 C 76 % 18.83 C
153 29-08-2019 12:40:00 23.6 C 77 % 19.33 C
154 29-08-2019 12:45:00 23.8 C 76 % 19.31 C
155 29-08-2019 12:50:00 24.1 C 75 % 19.39 C
156 29-08-2019 12:55:00 24.3 C 75 % 19.58 C
157 29-08-2019 13:00:00 24.4 C 72 % 19.02 C
158 29-08-2019 13:05:00 24.7 C 72 % 19.31 C
159 29-08-2019 13:10:00 24.9 C 70 % 19.05 C
160 29-08-2019 13:15:00 25.1 C 70 % 19.24 C
161 29-08-2019 13:20:00 25.2 C 69 % 19.11 C
162 29-08-2019 13:25:00 25.3 C 69 % 19.2 C
163 29-08-2019 13:30:00 25.5 C 69 % 19.39 C
164 29-08-2019 13:35:00 25.7 C 68 % 19.35 C
165 29-08-2019 13:40:00 25.8 C 68 % 19.44 C
166 29-08-2019 13:45:00 26.1 C 67 % 19.49 C
167 29-08-2019 13:50:00 26.3 C 66 % 19.44 C
168 29-08-2019 13:55:00 26.4 C 65 % 19.29 C
169 29-08-2019 14:00:00 26.5 C 65 % 19.38 C
170 29-08-2019 14:05:00 26.7 C 64 % 19.32 C
171 29-08-2019 14:10:00 26.7 C 66 % 19.82 C
172 29-08-2019 14:15:00 26.8 C 65 % 19.67 C
173 29-08-2019 14:20:00 26.7 C 65 % 19.57 C
174 29-08-2019 14:25:00 26.6 C 66 % 19.72 C
175 29-08-2019 14:30:00 26.6 C 65 % 19.48 C
Sensor: Nr:Datum:Temp:Feuchte:Taupunkt:
Aussen-T/F 176 29-08-2019 14:35:00 26.7 C 66 % 19.82 C
177 29-08-2019 14:40:00 26.8 C 65 % 19.67 C
178 29-08-2019 14:45:00 27 C 64 % 19.61 C
179 29-08-2019 14:50:00 27.1 C 64 % 19.7 C
180 29-08-2019 14:55:00 27.2 C 63 % 19.54 C
181 29-08-2019 15:00:00 27.2 C 63 % 19.54 C
182 29-08-2019 15:05:00 27.2 C 65 % 20.04 C
183 29-08-2019 15:10:00 27.3 C 63 % 19.63 C
184 29-08-2019 15:15:00 27.5 C 63 % 19.82 C
185 29-08-2019 15:20:00 27.7 C 63 % 20.01 C
186 29-08-2019 15:25:00 27.8 C 62 % 19.85 C
187 29-08-2019 15:30:00 27.7 C 62 % 19.75 C
188 29-08-2019 15:35:00 27.4 C 62 % 19.47 C
189 29-08-2019 15:40:00 27.4 C 62 % 19.47 C
190 29-08-2019 15:45:00 27.6 C 63 % 19.92 C
191 29-08-2019 15:50:00 27.7 C 62 % 19.75 C
192 29-08-2019 15:55:00 27.9 C 61 % 19.68 C
193 29-08-2019 16:00:00 28 C 61 % 19.77 C
194 29-08-2019 16:05:00 27.8 C 61 % 19.59 C
195 29-08-2019 16:10:00 27.8 C 61 % 19.59 C
196 29-08-2019 16:15:00 28.1 C 60 % 19.6 C
197 29-08-2019 16:20:00 28.1 C 59 % 19.33 C
198 29-08-2019 16:25:00 27.9 C 60 % 19.41 C
199 29-08-2019 16:30:00 27.9 C 59 % 19.14 C
200 29-08-2019 16:35:00 28.1 C 60 % 19.6 C
Sensor: Nr:Datum:Temp:Feuchte:Taupunkt:
Aussen-T/F 201 29-08-2019 16:40:00 28 C 59 % 19.24 C
202 29-08-2019 16:45:00 27.8 C 58 % 18.78 C
203 29-08-2019 16:50:00 27.5 C 60 % 19.04 C
204 29-08-2019 16:55:00 27.5 C 61 % 19.3 C
205 29-08-2019 17:00:00 27.8 C 60 % 19.32 C
206 29-08-2019 17:05:00 27.9 C 59 % 19.14 C
207 29-08-2019 17:10:00 27.6 C 59 % 18.86 C
208 29-08-2019 17:15:00 27.2 C 60 % 18.76 C
209 29-08-2019 17:20:00 27 C 61 % 18.83 C
210 29-08-2019 17:25:00 26.9 C 61 % 18.74 C
211 29-08-2019 17:30:00 26.8 C 61 % 18.65 C
212 29-08-2019 17:35:00 26.9 C 61 % 18.74 C
213 29-08-2019 17:40:00 27 C 61 % 18.83 C
214 29-08-2019 17:45:00 27.3 C 61 % 19.12 C
215 29-08-2019 17:50:00 27.5 C 60 % 19.04 C
216 29-08-2019 17:55:00 27.5 C 59 % 18.77 C
217 29-08-2019 18:00:00 27.1 C 60 % 18.66 C
218 29-08-2019 18:05:00 26.8 C 60 % 18.38 C
219 29-08-2019 18:10:00 26.8 C 60 % 18.38 C
220 29-08-2019 18:15:00 26.9 C 60 % 18.48 C
221 29-08-2019 18:20:00 26.9 C 60 % 18.48 C
222 29-08-2019 18:25:00 26.7 C 61 % 18.55 C
223 29-08-2019 18:30:00 26.3 C 61 % 18.18 C
224 29-08-2019 18:35:00 26.1 C 62 % 18.25 C
225 29-08-2019 18:40:00 26.1 C 61 % 17.99 C
Sensor: Nr:Datum:Temp:Feuchte:Taupunkt:
Aussen-T/F 226 29-08-2019 18:45:00 26 C 61 % 17.9 C
227 29-08-2019 18:50:00 25.9 C 61 % 17.8 C
228 29-08-2019 18:55:00 25.7 C 63 % 18.13 C
229 29-08-2019 19:00:00 25.5 C 62 % 17.68 C
230 29-08-2019 19:05:00 25.4 C 63 % 17.84 C
231 29-08-2019 19:10:00 25.2 C 63 % 17.65 C
232 29-08-2019 19:15:00 25.1 C 63 % 17.56 C
233 29-08-2019 19:20:00 25 C 65 % 17.96 C
234 29-08-2019 19:25:00 24.8 C 65 % 17.77 C
235 29-08-2019 19:30:00 24.7 C 64 % 17.43 C
236 29-08-2019 19:35:00 24.4 C 65 % 17.39 C
237 29-08-2019 19:40:00 24.4 C 66 % 17.64 C
238 29-08-2019 19:45:00 24.3 C 66 % 17.54 C
239 29-08-2019 19:50:00 24.1 C 67 % 17.59 C
240 29-08-2019 19:55:00 23.9 C 67 % 17.4 C
241 29-08-2019 20:00:00 23.9 C 68 % 17.63 C
242 29-08-2019 20:05:00 23.8 C 67 % 17.3 C
243 29-08-2019 20:10:00 23.7 C 68 % 17.44 C
244 29-08-2019 20:15:00 23.6 C 68 % 17.35 C
245 29-08-2019 20:20:00 23.4 C 69 % 17.39 C
246 29-08-2019 20:25:00 23.2 C 69 % 17.2 C
247 29-08-2019 20:30:00 22.8 C 70 % 17.04 C
248 29-08-2019 20:35:00 22.4 C 72 % 17.1 C
249 29-08-2019 20:40:00 22.1 C 73 % 17.03 C
250 29-08-2019 20:45:00 21.8 C 74 % 16.96 C
Sensor: Nr:Datum:Temp:Feuchte:Taupunkt:
Aussen-T/F 251 29-08-2019 20:50:00 21.6 C 75 % 16.98 C
252 29-08-2019 20:55:00 21.4 C 75 % 16.79 C
253 29-08-2019 21:00:00 21.3 C 75 % 16.69 C
254 29-08-2019 21:05:00 21.2 C 76 % 16.8 C
255 29-08-2019 21:10:00 21.1 C 76 % 16.7 C
256 29-08-2019 21:15:00 21.1 C 76 % 16.7 C
257 29-08-2019 21:20:00 21 C 76 % 16.61 C
258 29-08-2019 21:25:00 20.9 C 76 % 16.51 C
259 29-08-2019 21:30:00 20.8 C 77 % 16.62 C
260 29-08-2019 21:35:00 20.7 C 78 % 16.73 C
261 29-08-2019 21:40:00 20.7 C 78 % 16.73 C
262 29-08-2019 21:45:00 20.6 C 77 % 16.43 C
263 29-08-2019 21:50:00 20.7 C 78 % 16.73 C
264 29-08-2019 21:55:00 20.6 C 78 % 16.63 C
265 29-08-2019 22:00:00 20.6 C 78 % 16.63 C
266 29-08-2019 22:05:00 20.6 C 79 % 16.83 C
267 29-08-2019 22:10:00 20.6 C 79 % 16.83 C
268 29-08-2019 22:15:00 20.6 C 79 % 16.83 C
269 29-08-2019 22:20:00 20.6 C 79 % 16.83 C
270 29-08-2019 22:25:00 20.6 C 79 % 16.83 C
271 29-08-2019 22:30:00 20.6 C 79 % 16.83 C
272 29-08-2019 22:35:00 20.4 C 78 % 16.44 C
273 29-08-2019 22:40:00 20.4 C 79 % 16.64 C
274 29-08-2019 22:45:00 20.4 C 79 % 16.64 C
275 29-08-2019 22:50:00 20.4 C 79 % 16.64 C
Sensor: Nr:Datum:Temp:Feuchte:Taupunkt:
Aussen-T/F 276 29-08-2019 22:55:00 20.5 C 79 % 16.73 C
277 29-08-2019 23:00:00 20.6 C 79 % 16.83 C
278 29-08-2019 23:05:00 20.6 C 79 % 16.83 C
279 29-08-2019 23:10:00 20.6 C 79 % 16.83 C
280 29-08-2019 23:15:00 20.6 C 80 % 17.03 C
281 29-08-2019 23:20:00 20.6 C 80 % 17.03 C
282 29-08-2019 23:25:00 20.6 C 79 % 16.83 C
283 29-08-2019 23:30:00 20.5 C 80 % 16.93 C
284 29-08-2019 23:35:00 20.4 C 80 % 16.83 C
285 29-08-2019 23:40:00 20.4 C 80 % 16.83 C
286 29-08-2019 23:45:00 20.3 C 80 % 16.74 C
287 29-08-2019 23:50:00 20.3 C 79 % 16.54 C
288 29-08-2019 23:55:00 20.3 C 80 % 16.74 C

Legende:
   Min
   Max


Maximal/Minimal-Werte vom 29.08.2019 - 29.08.2019

Sensor Min Max Avg
Temp
(Aussen-T/F)
17.4 °C
29-08-2019  04:30:00
28.1 °C
29-08-2019  16:15:00
22.04 °C
Feuchte
(Aussen-T/F)
58 %
29-08-2019  16:45:00
90 %
29-08-2019  05:05:00
76.92 %
Taupunkt
(Aussen-T/F)
15.39 C
29-08-2019  04:30:00
20.04 C
29-08-2019  15:05:00
17.57 C

Die Daten stammen von einer Davis Vantage Pro 2 Wetter-Station und werden unter Linux mit der Software wview2wettercgi und aufbereitet. Alle Angaben erfolgen ohne Gewähr für ihre Vollständigkeit oder Richtigkeit.
Kontakt: Rainer Krienke krienke@uni-koblenz.de . Meine Webseiten an der Uni Koblenz oder privat.
Version: $Revision: 0.78 $